sensor_id;sensor_type;location;lat;lon;timestamp;P1;durP1;ratioP1;P2;durP2;ratioP2
1993;SDS011;998;49.906;10.908;2022-09-01T00:02:09;4.30;;;2.60;;
1993;SDS011;998;49.906;10.908;2022-09-01T00:09:25;3.60;;;2.20;;
1993;SDS011;998;49.906;10.908;2022-09-01T00:36:49;3.63;;;2.50;;
1993;SDS011;998;49.906;10.908;2022-09-01T00:39:37;6.90;;;3.10;;
1993;SDS011;998;49.906;10.908;2022-09-01T00:42:04;4.53;;;2.30;;
1993;SDS011;998;49.906;10.908;2022-09-01T00:44:31;4.23;;;2.73;;
1993;SDS011;998;49.906;10.908;2022-09-01T00:47:00;3.40;;;2.30;;
1993;SDS011;998;49.906;10.908;2022-09-01T00:49:31;5.90;;;2.17;;
1993;SDS011;998;49.906;10.908;2022-09-01T00:52:05;7.30;;;2.40;;
1993;SDS011;998;49.906;10.908;2022-09-01T00:54:35;3.93;;;2.30;;
1993;SDS011;998;49.906;10.908;2022-09-01T00:57:06;6.57;;;3.27;;
1993;SDS011;998;49.906;10.908;2022-09-01T00:59:35;3.37;;;2.00;;
1993;SDS011;998;49.906;10.908;2022-09-01T01:02:07;3.63;;;2.33;;
1993;SDS011;998;49.906;10.908;2022-09-01T01:04:35;3.23;;;1.90;;
1993;SDS011;998;49.906;10.908;2022-09-01T01:07:02;7.10;;;2.40;;
1993;SDS011;998;49.906;10.908;2022-09-01T01:09:33;4.60;;;2.50;;
1993;SDS011;998;49.906;10.908;2022-09-01T01:12:03;4.50;;;2.33;;
1993;SDS011;998;49.906;10.908;2022-09-01T01:14:33;3.47;;;2.07;;
1993;SDS011;998;49.906;10.908;2022-09-01T01:17:03;4.40;;;2.33;;
1993;SDS011;998;49.906;10.908;2022-09-01T01:19:36;3.37;;;1.80;;
1993;SDS011;998;49.906;10.908;2022-09-01T01:22:26;3.53;;;2.27;;
1993;SDS011;998;49.906;10.908;2022-09-01T01:25:18;4.13;;;1.80;;
1993;SDS011;998;49.906;10.908;2022-09-01T01:27:46;4.00;;;2.30;;
1993;SDS011;998;49.906;10.908;2022-09-01T01:30:13;4.30;;;2.53;;
1993;SDS011;998;49.906;10.908;2022-09-01T01:32:43;3.60;;;2.23;;
1993;SDS011;998;49.906;10.908;2022-09-01T01:35:13;5.03;;;2.30;;
1993;SDS011;998;49.906;10.908;2022-09-01T01:37:47;4.27;;;2.30;;
1993;SDS011;998;49.906;10.908;2022-09-01T01:40:15;3.70;;;2.13;;
1993;SDS011;998;49.906;10.908;2022-09-01T01:42:46;3.90;;;2.10;;
1993;SDS011;998;49.906;10.908;2022-09-01T01:45:16;4.20;;;2.57;;
1993;SDS011;998;49.906;10.908;2022-09-01T01:47:45;3.83;;;2.33;;
1993;SDS011;998;49.906;10.908;2022-09-01T01:50:17;7.50;;;2.20;;
1993;SDS011;998;49.906;10.908;2022-09-01T01:52:44;3.63;;;2.50;;
1993;SDS011;998;49.906;10.908;2022-09-01T01:55:11;3.90;;;2.37;;
1993;SDS011;998;49.906;10.908;2022-09-01T01:57:43;6.43;;;2.60;;
1993;SDS011;998;49.906;10.908;2022-09-01T02:00:14;3.73;;;2.60;;
1993;SDS011;998;49.906;10.908;2022-09-01T02:02:44;3.20;;;2.10;;
1993;SDS011;998;49.906;10.908;2022-09-01T02:05:17;3.67;;;2.40;;
1993;SDS011;998;49.906;10.908;2022-09-01T02:07:48;5.17;;;2.50;;
1993;SDS011;998;49.906;10.908;2022-09-01T02:10:24;3.53;;;2.20;;
1993;SDS011;998;49.906;10.908;2022-09-01T02:12:56;5.50;;;3.13;;
1993;SDS011;998;49.906;10.908;2022-09-01T02:15:28;5.60;;;2.30;;
1993;SDS011;998;49.906;10.908;2022-09-01T02:17:59;3.60;;;2.10;;
1993;SDS011;998;49.906;10.908;2022-09-01T02:20:26;3.77;;;2.50;;
1993;SDS011;998;49.906;10.908;2022-09-01T02:22:53;4.67;;;2.80;;
1993;SDS011;998;49.906;10.908;2022-09-01T02:25:21;4.33;;;2.27;;
1993;SDS011;998;49.906;10.908;2022-09-01T02:27:48;5.10;;;2.37;;
1993;SDS011;998;49.906;10.908;2022-09-01T02:30:21;3.90;;;2.27;;
1993;SDS011;998;49.906;10.908;2022-09-01T02:32:48;5.27;;;2.57;;
1993;SDS011;998;49.906;10.908;2022-09-01T02:35:15;5.70;;;2.70;;
1993;SDS011;998;49.906;10.908;2022-09-01T02:37:43;4.10;;;2.73;;
1993;SDS011;998;49.906;10.908;2022-09-01T02:40:13;3.57;;;2.40;;
1993;SDS011;998;49.906;10.908;2022-09-01T02:42:40;3.60;;;2.43;;
1993;SDS011;998;49.906;10.908;2022-09-01T02:45:07;4.60;;;2.40;;
1993;SDS011;998;49.906;10.908;2022-09-01T02:47:41;5.37;;;2.30;;
1993;SDS011;998;49.906;10.908;2022-09-01T02:50:09;4.90;;;3.00;;
1993;SDS011;998;49.906;10.908;2022-09-01T02:52:41;5.87;;;2.43;;
1993;SDS011;998;49.906;10.908;2022-09-01T02:55:09;3.90;;;2.53;;
1993;SDS011;998;49.906;10.908;2022-09-01T02:57:36;4.40;;;2.07;;
1993;SDS011;998;49.906;10.908;2022-09-01T03:00:04;4.40;;;2.07;;
1993;SDS011;998;49.906;10.908;2022-09-01T03:02:46;3.70;;;2.63;;
1993;SDS011;998;49.906;10.908;2022-09-01T03:05:15;3.33;;;2.40;;
1993;SDS011;998;49.906;10.908;2022-09-01T03:07:49;4.17;;;2.40;;
1993;SDS011;998;49.906;10.908;2022-09-01T03:10:20;5.77;;;2.50;;
1993;SDS011;998;49.906;10.908;2022-09-01T03:12:48;4.30;;;2.50;;
1993;SDS011;998;49.906;10.908;2022-09-01T03:15:15;5.83;;;2.50;;
1993;SDS011;998;49.906;10.908;2022-09-01T03:17:42;4.53;;;2.83;;
1993;SDS011;998;49.906;10.908;2022-09-01T03:20:11;5.60;;;3.10;;
1993;SDS011;998;49.906;10.908;2022-09-01T03:22:37;12.67;;;2.63;;
1993;SDS011;998;49.906;10.908;2022-09-01T03:25:04;3.67;;;2.60;;
1993;SDS011;998;49.906;10.908;2022-09-01T03:27:32;3.70;;;2.20;;
1993;SDS011;998;49.906;10.908;2022-09-01T03:29:58;6.17;;;2.70;;
1993;SDS011;998;49.906;10.908;2022-09-01T03:32:25;4.53;;;2.37;;
1993;SDS011;998;49.906;10.908;2022-09-01T03:34:53;5.40;;;2.70;;
1993;SDS011;998;49.906;10.908;2022-09-01T03:37:22;6.30;;;2.90;;
1993;SDS011;998;49.906;10.908;2022-09-01T03:39:49;4.00;;;2.70;;
1993;SDS011;998;49.906;10.908;2022-09-01T03:42:16;4.70;;;3.00;;
1993;SDS011;998;49.906;10.908;2022-09-01T03:44:50;4.90;;;3.13;;
1993;SDS011;998;49.906;10.908;2022-09-01T03:47:17;5.50;;;3.00;;
1993;SDS011;998;49.906;10.908;2022-09-01T03:49:45;5.97;;;2.90;;
1993;SDS011;998;49.906;10.908;2022-09-01T03:52:13;3.80;;;2.10;;
1993;SDS011;998;49.906;10.908;2022-09-01T03:54:42;3.20;;;2.20;;
1993;SDS011;998;49.906;10.908;2022-09-01T03:57:10;3.80;;;3.33;;
1993;SDS011;998;49.906;10.908;2022-09-01T03:59:37;7.30;;;2.57;;
1993;SDS011;998;49.906;10.908;2022-09-01T04:02:07;4.43;;;2.30;;
1993;SDS011;998;49.906;10.908;2022-09-01T04:04:34;5.13;;;2.70;;
1993;SDS011;998;49.906;10.908;2022-09-01T04:07:01;5.20;;;2.67;;
1993;SDS011;998;49.906;10.908;2022-09-01T04:09:28;5.13;;;2.90;;
1993;SDS011;998;49.906;10.908;2022-09-01T04:11:56;6.10;;;2.90;;
1993;SDS011;998;49.906;10.908;2022-09-01T04:14:23;5.77;;;3.37;;
1993;SDS011;998;49.906;10.908;2022-09-01T04:16:51;4.70;;;3.33;;
1993;SDS011;998;49.906;10.908;2022-09-01T04:19:36;4.17;;;3.17;;
1993;SDS011;998;49.906;10.908;2022-09-01T04:22:03;5.30;;;2.93;;
1993;SDS011;998;49.906;10.908;2022-09-01T04:24:32;3.50;;;2.70;;
1993;SDS011;998;49.906;10.908;2022-09-01T04:27:01;10.63;;;2.83;;
1993;SDS011;998;49.906;10.908;2022-09-01T04:29:28;6.53;;;2.90;;
1993;SDS011;998;49.906;10.908;2022-09-01T04:31:57;4.40;;;2.90;;
1993;SDS011;998;49.906;10.908;2022-09-01T04:34:28;5.70;;;3.07;;
1993;SDS011;998;49.906;10.908;2022-09-01T04:37:01;4.03;;;2.80;;
1993;SDS011;998;49.906;10.908;2022-09-01T04:39:30;7.50;;;3.43;;
1993;SDS011;998;49.906;10.908;2022-09-01T04:41:56;6.13;;;3.10;;
1993;SDS011;998;49.906;10.908;2022-09-01T04:44:25;5.50;;;2.77;;
1993;SDS011;998;49.906;10.908;2022-09-01T04:46:52;3.53;;;2.43;;
1993;SDS011;998;49.906;10.908;2022-09-01T04:49:20;6.67;;;3.40;;
1993;SDS011;998;49.906;10.908;2022-09-01T04:51:51;3.90;;;3.13;;
1993;SDS011;998;49.906;10.908;2022-09-01T04:54:18;5.77;;;3.20;;
1993;SDS011;998;49.906;10.908;2022-09-01T04:56:47;5.33;;;3.60;;
1993;SDS011;998;49.906;10.908;2022-09-01T04:59:15;4.43;;;3.23;;
1993;SDS011;998;49.906;10.908;2022-09-01T05:01:46;5.00;;;3.33;;
1993;SDS011;998;49.906;10.908;2022-09-01T05:04:15;4.50;;;3.37;;
1993;SDS011;998;49.906;10.908;2022-09-01T05:06:43;6.67;;;3.93;;
1993;SDS011;998;49.906;10.908;2022-09-01T05:09:13;6.93;;;3.33;;
1993;SDS011;998;49.906;10.908;2022-09-01T05:11:42;5.10;;;3.20;;
1993;SDS011;998;49.906;10.908;2022-09-01T05:14:10;5.23;;;2.73;;
1993;SDS011;998;49.906;10.908;2022-09-01T05:16:37;5.50;;;2.87;;
1993;SDS011;998;49.906;10.908;2022-09-01T05:19:07;5.87;;;3.90;;
1993;SDS011;998;49.906;10.908;2022-09-01T05:21:38;7.50;;;3.30;;
1993;SDS011;998;49.906;10.908;2022-09-01T05:24:05;9.03;;;3.13;;
1993;SDS011;998;49.906;10.908;2022-09-01T05:26:33;5.50;;;3.20;;
1993;SDS011;998;49.906;10.908;2022-09-01T05:29:03;6.13;;;4.60;;
1993;SDS011;998;49.906;10.908;2022-09-01T05:31:34;5.43;;;3.73;;
1993;SDS011;998;49.906;10.908;2022-09-01T05:34:02;6.83;;;4.13;;
1993;SDS011;998;49.906;10.908;2022-09-01T05:36:30;6.50;;;4.20;;
1993;SDS011;998;49.906;10.908;2022-09-01T05:38:57;5.80;;;3.83;;
1993;SDS011;998;49.906;10.908;2022-09-01T05:41:25;5.17;;;4.07;;
1993;SDS011;998;49.906;10.908;2022-09-01T05:43:53;11.50;;;4.83;;
1993;SDS011;998;49.906;10.908;2022-09-01T05:46:20;7.73;;;5.13;;
1993;SDS011;998;49.906;10.908;2022-09-01T05:48:50;4.70;;;4.20;;
1993;SDS011;998;49.906;10.908;2022-09-01T05:51:19;5.60;;;4.70;;
1993;SDS011;998;49.906;10.908;2022-09-01T05:53:51;16.73;;;5.57;;
1993;SDS011;998;49.906;10.908;2022-09-01T05:56:23;5.40;;;4.23;;
1993;SDS011;998;49.906;10.908;2022-09-01T05:58:50;8.40;;;4.20;;
1993;SDS011;998;49.906;10.908;2022-09-01T06:01:19;8.80;;;3.90;;
1993;SDS011;998;49.906;10.908;2022-09-01T06:03:48;5.13;;;4.30;;
1993;SDS011;998;49.906;10.908;2022-09-01T06:06:18;5.40;;;4.30;;
1993;SDS011;998;49.906;10.908;2022-09-01T06:08:47;5.87;;;4.23;;
1993;SDS011;998;49.906;10.908;2022-09-01T06:11:15;4.83;;;3.80;;
1993;SDS011;998;49.906;10.908;2022-09-01T06:13:42;6.77;;;4.40;;
1993;SDS011;998;49.906;10.908;2022-09-01T06:16:11;5.53;;;3.80;;
1993;SDS011;998;49.906;10.908;2022-09-01T06:18:43;5.43;;;4.40;;
1993;SDS011;998;49.906;10.908;2022-09-01T06:21:10;6.50;;;3.30;;
1993;SDS011;998;49.906;10.908;2022-09-01T06:23:39;4.47;;;3.60;;
1993;SDS011;998;49.906;10.908;2022-09-01T06:26:06;7.50;;;3.80;;
1993;SDS011;998;49.906;10.908;2022-09-01T06:28:42;6.83;;;3.30;;
1993;SDS011;998;49.906;10.908;2022-09-01T06:31:09;5.87;;;4.13;;
1993;SDS011;998;49.906;10.908;2022-09-01T06:33:36;10.10;;;3.80;;
1993;SDS011;998;49.906;10.908;2022-09-01T06:36:04;13.20;;;4.67;;
1993;SDS011;998;49.906;10.908;2022-09-01T06:38:33;4.10;;;2.90;;
1993;SDS011;998;49.906;10.908;2022-09-01T06:41:01;6.47;;;3.17;;
1993;SDS011;998;49.906;10.908;2022-09-01T06:43:38;10.00;;;4.00;;
1993;SDS011;998;49.906;10.908;2022-09-01T06:46:06;4.37;;;2.97;;
1993;SDS011;998;49.906;10.908;2022-09-01T06:48:33;5.40;;;3.30;;
1993;SDS011;998;49.906;10.908;2022-09-01T06:51:00;5.33;;;3.17;;
1993;SDS011;998;49.906;10.908;2022-09-01T06:53:28;6.83;;;3.70;;
1993;SDS011;998;49.906;10.908;2022-09-01T06:55:55;6.50;;;3.13;;
1993;SDS011;998;49.906;10.908;2022-09-01T06:58:23;6.80;;;2.93;;
1993;SDS011;998;49.906;10.908;2022-09-01T07:00:51;5.20;;;3.43;;
1993;SDS011;998;49.906;10.908;2022-09-01T07:03:22;5.30;;;2.70;;
1993;SDS011;998;49.906;10.908;2022-09-01T07:05:50;4.87;;;3.00;;
1993;SDS011;998;49.906;10.908;2022-09-01T07:08:18;3.93;;;2.30;;
1993;SDS011;998;49.906;10.908;2022-09-01T07:10:47;4.60;;;2.73;;
1993;SDS011;998;49.906;10.908;2022-09-01T07:13:23;10.43;;;5.40;;
1993;SDS011;998;49.906;10.908;2022-09-01T07:15:52;17.23;;;10.00;;
1993;SDS011;998;49.906;10.908;2022-09-01T07:18:21;7.27;;;3.50;;
1993;SDS011;998;49.906;10.908;2022-09-01T07:20:50;4.70;;;2.93;;
1993;SDS011;998;49.906;10.908;2022-09-01T07:23:18;3.87;;;2.57;;
1993;SDS011;998;49.906;10.908;2022-09-01T07:25:48;5.10;;;3.07;;
1993;SDS011;998;49.906;10.908;2022-09-01T07:28:20;4.70;;;2.63;;
1993;SDS011;998;49.906;10.908;2022-09-01T07:30:49;5.60;;;3.10;;
1993;SDS011;998;49.906;10.908;2022-09-01T07:33:20;4.80;;;2.13;;
1993;SDS011;998;49.906;10.908;2022-09-01T07:35:47;11.53;;;2.30;;
1993;SDS011;998;49.906;10.908;2022-09-01T07:38:17;3.37;;;1.90;;
1993;SDS011;998;49.906;10.908;2022-09-01T07:40:44;4.03;;;2.30;;
1993;SDS011;998;49.906;10.908;2022-09-01T07:43:14;4.23;;;2.07;;
1993;SDS011;998;49.906;10.908;2022-09-01T07:45:47;4.33;;;2.50;;
1993;SDS011;998;49.906;10.908;2022-09-01T07:48:16;3.37;;;2.13;;
1993;SDS011;998;49.906;10.908;2022-09-01T07:50:46;4.80;;;2.33;;
1993;SDS011;998;49.906;10.908;2022-09-01T07:53:17;3.73;;;2.00;;
1993;SDS011;998;49.906;10.908;2022-09-01T07:55:46;3.93;;;1.80;;
1993;SDS011;998;49.906;10.908;2022-09-01T07:58:14;2.93;;;1.87;;
1993;SDS011;998;49.906;10.908;2022-09-01T08:00:43;7.43;;;2.80;;
1993;SDS011;998;49.906;10.908;2022-09-01T08:03:11;3.90;;;1.90;;
1993;SDS011;998;49.906;10.908;2022-09-01T08:05:40;4.67;;;1.70;;
1993;SDS011;998;49.906;10.908;2022-09-01T08:08:07;3.33;;;1.80;;
1993;SDS011;998;49.906;10.908;2022-09-01T08:10:37;4.03;;;2.17;;
1993;SDS011;998;49.906;10.908;2022-09-01T08:13:05;5.00;;;2.77;;
1993;SDS011;998;49.906;10.908;2022-09-01T08:15:32;3.00;;;1.77;;
1993;SDS011;998;49.906;10.908;2022-09-01T08:17:59;5.97;;;2.73;;
1993;SDS011;998;49.906;10.908;2022-09-01T08:20:26;5.90;;;2.20;;
1993;SDS011;998;49.906;10.908;2022-09-01T08:22:55;4.20;;;2.13;;
1993;SDS011;998;49.906;10.908;2022-09-01T08:25:22;2.97;;;1.73;;
1993;SDS011;998;49.906;10.908;2022-09-01T08:27:50;4.17;;;1.70;;
1993;SDS011;998;49.906;10.908;2022-09-01T08:30:17;3.93;;;2.10;;
1993;SDS011;998;49.906;10.908;2022-09-01T08:32:44;4.03;;;1.90;;
1993;SDS011;998;49.906;10.908;2022-09-01T08:35:11;3.43;;;2.03;;
1993;SDS011;998;49.906;10.908;2022-09-01T08:37:40;4.43;;;2.50;;
1993;SDS011;998;49.906;10.908;2022-09-01T08:40:09;3.00;;;1.67;;
1993;SDS011;998;49.906;10.908;2022-09-01T08:42:43;4.00;;;1.50;;
1993;SDS011;998;49.906;10.908;2022-09-01T08:45:19;8.80;;;3.33;;
1993;SDS011;998;49.906;10.908;2022-09-01T08:47:51;3.70;;;1.87;;
1993;SDS011;998;49.906;10.908;2022-09-01T08:50:19;11.93;;;3.03;;
1993;SDS011;998;49.906;10.908;2022-09-01T08:52:48;4.23;;;3.00;;
1993;SDS011;998;49.906;10.908;2022-09-01T08:55:23;5.00;;;1.97;;
1993;SDS011;998;49.906;10.908;2022-09-01T08:57:56;3.50;;;1.97;;
1993;SDS011;998;49.906;10.908;2022-09-01T09:00:30;3.20;;;1.77;;
1993;SDS011;998;49.906;10.908;2022-09-01T09:03:12;3.60;;;1.70;;
1993;SDS011;998;49.906;10.908;2022-09-01T09:05:49;4.40;;;2.40;;
1993;SDS011;998;49.906;10.908;2022-09-01T09:08:35;3.00;;;1.60;;
1993;SDS011;998;49.906;10.908;2022-09-01T09:11:24;4.43;;;2.03;;
1993;SDS011;998;49.906;10.908;2022-09-01T09:14:05;2.90;;;1.80;;
1993;SDS011;998;49.906;10.908;2022-09-01T09:16:37;3.53;;;2.00;;
1993;SDS011;998;49.906;10.908;2022-09-01T09:19:15;4.00;;;2.17;;
1993;SDS011;998;49.906;10.908;2022-09-01T09:21:48;4.17;;;2.10;;
1993;SDS011;998;49.906;10.908;2022-09-01T09:24:18;3.73;;;2.37;;
1993;SDS011;998;49.906;10.908;2022-09-01T09:26:51;5.33;;;2.00;;
1993;SDS011;998;49.906;10.908;2022-09-01T09:29:19;3.27;;;2.20;;
1993;SDS011;998;49.906;10.908;2022-09-01T09:31:48;4.20;;;2.60;;
1993;SDS011;998;49.906;10.908;2022-09-01T09:34:29;3.40;;;1.63;;
1993;SDS011;998;49.906;10.908;2022-09-01T09:37:18;3.67;;;2.10;;
1993;SDS011;998;49.906;10.908;2022-09-01T09:40:02;3.30;;;1.93;;
1993;SDS011;998;49.906;10.908;2022-09-01T09:42:37;5.50;;;1.90;;
1993;SDS011;998;49.906;10.908;2022-09-01T09:45:06;3.60;;;2.00;;
1993;SDS011;998;49.906;10.908;2022-09-01T09:47:46;5.23;;;2.10;;
1993;SDS011;998;49.906;10.908;2022-09-01T09:50:16;4.23;;;1.67;;
1993;SDS011;998;49.906;10.908;2022-09-01T09:52:49;6.10;;;1.80;;
1993;SDS011;998;49.906;10.908;2022-09-01T09:55:27;3.27;;;1.77;;
1993;SDS011;998;49.906;10.908;2022-09-01T09:57:57;2.70;;;1.60;;
1993;SDS011;998;49.906;10.908;2022-09-01T10:00:27;6.47;;;2.40;;
1993;SDS011;998;49.906;10.908;2022-09-01T10:02:57;4.40;;;1.87;;
1993;SDS011;998;49.906;10.908;2022-09-01T10:05:37;2.80;;;1.80;;
1993;SDS011;998;49.906;10.908;2022-09-01T10:08:07;3.93;;;1.90;;
1993;SDS011;998;49.906;10.908;2022-09-01T10:10:37;5.50;;;2.47;;
1993;SDS011;998;49.906;10.908;2022-09-01T10:13:13;4.00;;;2.47;;
1993;SDS011;998;49.906;10.908;2022-09-01T10:15:42;3.77;;;1.80;;
1993;SDS011;998;49.906;10.908;2022-09-01T10:18:14;3.73;;;2.00;;
1993;SDS011;998;49.906;10.908;2022-09-01T10:20:44;3.23;;;1.83;;
1993;SDS011;998;49.906;10.908;2022-09-01T10:23:17;4.20;;;1.90;;
1993;SDS011;998;49.906;10.908;2022-09-01T10:25:44;3.93;;;1.90;;
1993;SDS011;998;49.906;10.908;2022-09-01T10:28:20;5.57;;;1.73;;
1993;SDS011;998;49.906;10.908;2022-09-01T10:30:50;6.43;;;2.20;;
1993;SDS011;998;49.906;10.908;2022-09-01T10:33:21;3.20;;;1.77;;
1993;SDS011;998;49.906;10.908;2022-09-01T10:35:54;6.07;;;3.87;;
1993;SDS011;998;49.906;10.908;2022-09-01T10:38:21;4.80;;;2.03;;
1993;SDS011;998;49.906;10.908;2022-09-01T10:40:51;3.10;;;1.70;;
1993;SDS011;998;49.906;10.908;2022-09-01T10:43:40;2.80;;;1.50;;
1993;SDS011;998;49.906;10.908;2022-09-01T10:46:09;3.70;;;2.10;;
1993;SDS011;998;49.906;10.908;2022-09-01T10:49:17;4.30;;;2.20;;
1993;SDS011;998;49.906;10.908;2022-09-01T10:51:59;3.93;;;1.90;;
1993;SDS011;998;49.906;10.908;2022-09-01T10:57:24;4.20;;;2.10;;
1993;SDS011;998;49.906;10.908;2022-09-01T11:00:15;3.57;;;2.00;;
1993;SDS011;998;49.906;10.908;2022-09-01T11:03:33;6.83;;;4.20;;
1993;SDS011;998;49.906;10.908;2022-09-01T11:09:32;3.13;;;2.00;;
1993;SDS011;998;49.906;10.908;2022-09-01T11:15:31;5.63;;;2.87;;
1993;SDS011;998;49.906;10.908;2022-09-01T11:18:07;3.47;;;2.23;;
1993;SDS011;998;49.906;10.908;2022-09-01T11:20:36;4.50;;;1.93;;
1993;SDS011;998;49.906;10.908;2022-09-01T11:23:07;6.47;;;1.90;;
1993;SDS011;998;49.906;10.908;2022-09-01T11:25:39;5.33;;;2.10;;
1993;SDS011;998;49.906;10.908;2022-09-01T11:28:09;4.40;;;1.50;;
1993;SDS011;998;49.906;10.908;2022-09-01T11:31:08;2.60;;;1.47;;
1993;SDS011;998;49.906;10.908;2022-09-01T11:33:41;11.13;;;5.40;;
1993;SDS011;998;49.906;10.908;2022-09-01T11:36:23;9.10;;;4.73;;
1993;SDS011;998;49.906;10.908;2022-09-01T11:38:58;5.73;;;2.53;;
1993;SDS011;998;49.906;10.908;2022-09-01T11:41:32;4.53;;;1.97;;
1993;SDS011;998;49.906;10.908;2022-09-01T11:44:10;4.10;;;1.70;;
1993;SDS011;998;49.906;10.908;2022-09-01T11:46:41;3.43;;;1.60;;
1993;SDS011;998;49.906;10.908;2022-09-01T11:49:17;5.03;;;1.60;;
1993;SDS011;998;49.906;10.908;2022-09-01T11:51:52;3.60;;;1.77;;
1993;SDS011;998;49.906;10.908;2022-09-01T11:54:21;4.93;;;2.00;;
1993;SDS011;998;49.906;10.908;2022-09-01T11:56:48;4.40;;;1.83;;
1993;SDS011;998;49.906;10.908;2022-09-01T11:59:28;3.50;;;1.83;;
1993;SDS011;998;49.906;10.908;2022-09-01T12:01:58;4.40;;;1.80;;
1993;SDS011;998;49.906;10.908;2022-09-01T12:04:25;3.40;;;1.60;;
1993;SDS011;998;49.906;10.908;2022-09-01T12:06:58;3.60;;;1.70;;
1993;SDS011;998;49.906;10.908;2022-09-01T12:09:30;2.97;;;1.77;;
1993;SDS011;998;49.906;10.908;2022-09-01T12:12:04;3.40;;;1.90;;
1993;SDS011;998;49.906;10.908;2022-09-01T12:14:32;2.57;;;1.50;;
1993;SDS011;998;49.906;10.908;2022-09-01T12:17:02;5.60;;;1.60;;
1993;SDS011;998;49.906;10.908;2022-09-01T12:19:31;6.90;;;2.43;;
1993;SDS011;998;49.906;10.908;2022-09-01T12:22:00;4.10;;;2.77;;
1993;SDS011;998;49.906;10.908;2022-09-01T12:24:32;3.50;;;1.90;;
1993;SDS011;998;49.906;10.908;2022-09-01T12:27:01;7.40;;;1.80;;
1993;SDS011;998;49.906;10.908;2022-09-01T12:29:29;3.40;;;1.93;;
1993;SDS011;998;49.906;10.908;2022-09-01T12:31:57;3.93;;;2.23;;
1993;SDS011;998;49.906;10.908;2022-09-01T12:34:27;5.60;;;2.10;;
1993;SDS011;998;49.906;10.908;2022-09-01T12:37:04;4.40;;;2.37;;
1993;SDS011;998;49.906;10.908;2022-09-01T12:39:34;3.53;;;1.77;;
1993;SDS011;998;49.906;10.908;2022-09-01T12:42:04;3.40;;;1.80;;
1993;SDS011;998;49.906;10.908;2022-09-01T12:44:49;2.97;;;1.60;;
1993;SDS011;998;49.906;10.908;2022-09-01T12:50:40;5.67;;;1.80;;
1993;SDS011;998;49.906;10.908;2022-09-01T12:58:45;5.73;;;2.10;;
1993;SDS011;998;49.906;10.908;2022-09-01T13:01:25;3.73;;;1.57;;
1993;SDS011;998;49.906;10.908;2022-09-01T13:04:08;3.37;;;1.60;;
1993;SDS011;998;49.906;10.908;2022-09-01T13:06:43;3.30;;;2.30;;
1993;SDS011;998;49.906;10.908;2022-09-01T13:09:10;2.87;;;1.30;;
1993;SDS011;998;49.906;10.908;2022-09-01T13:11:38;3.13;;;1.53;;
1993;SDS011;998;49.906;10.908;2022-09-01T13:14:06;4.60;;;2.57;;
1993;SDS011;998;49.906;10.908;2022-09-01T13:16:33;4.23;;;2.23;;
1993;SDS011;998;49.906;10.908;2022-09-01T13:19:01;3.70;;;2.23;;
1993;SDS011;998;49.906;10.908;2022-09-01T13:21:31;3.50;;;2.10;;
1993;SDS011;998;49.906;10.908;2022-09-01T13:24:04;3.37;;;2.10;;
1993;SDS011;998;49.906;10.908;2022-09-01T13:26:33;2.67;;;1.50;;
1993;SDS011;998;49.906;10.908;2022-09-01T13:29:00;3.73;;;2.20;;
1993;SDS011;998;49.906;10.908;2022-09-01T13:31:27;4.80;;;1.80;;
1993;SDS011;998;49.906;10.908;2022-09-01T13:33:55;3.43;;;1.90;;
1993;SDS011;998;49.906;10.908;2022-09-01T13:36:25;5.60;;;1.83;;
1993;SDS011;998;49.906;10.908;2022-09-01T13:38:52;2.80;;;1.70;;
1993;SDS011;998;49.906;10.908;2022-09-01T13:41:20;3.80;;;2.63;;
1993;SDS011;998;49.906;10.908;2022-09-01T13:43:47;3.57;;;1.80;;
1993;SDS011;998;49.906;10.908;2022-09-01T13:46:14;3.10;;;1.60;;
1993;SDS011;998;49.906;10.908;2022-09-01T13:48:41;3.10;;;1.70;;
1993;SDS011;998;49.906;10.908;2022-09-01T13:51:08;10.20;;;2.37;;
1993;SDS011;998;49.906;10.908;2022-09-01T13:53:35;3.80;;;1.80;;
1993;SDS011;998;49.906;10.908;2022-09-01T13:56:02;7.80;;;2.40;;
1993;SDS011;998;49.906;10.908;2022-09-01T13:58:31;3.97;;;2.20;;
1993;SDS011;998;49.906;10.908;2022-09-01T14:00:58;3.53;;;2.23;;
1993;SDS011;998;49.906;10.908;2022-09-01T14:03:24;5.50;;;2.00;;
1993;SDS011;998;49.906;10.908;2022-09-01T14:05:51;3.93;;;2.20;;
1993;SDS011;998;49.906;10.908;2022-09-01T14:08:19;2.80;;;1.47;;
1993;SDS011;998;49.906;10.908;2022-09-01T14:10:48;3.90;;;1.90;;
1993;SDS011;998;49.906;10.908;2022-09-01T14:13:18;3.47;;;1.77;;
1993;SDS011;998;49.906;10.908;2022-09-01T14:15:47;3.40;;;1.77;;
1993;SDS011;998;49.906;10.908;2022-09-01T14:18:16;3.40;;;2.00;;
1993;SDS011;998;49.906;10.908;2022-09-01T14:20:46;5.83;;;2.10;;
1993;SDS011;998;49.906;10.908;2022-09-01T14:23:15;2.70;;;1.53;;
1993;SDS011;998;49.906;10.908;2022-09-01T14:25:43;3.00;;;1.87;;
1993;SDS011;998;49.906;10.908;2022-09-01T14:28:12;2.73;;;1.47;;
1993;SDS011;998;49.906;10.908;2022-09-01T14:30:40;3.37;;;1.70;;
1993;SDS011;998;49.906;10.908;2022-09-01T14:33:09;3.90;;;2.20;;
1993;SDS011;998;49.906;10.908;2022-09-01T14:35:37;4.57;;;1.50;;
1993;SDS011;998;49.906;10.908;2022-09-01T14:38:07;4.43;;;1.67;;
1993;SDS011;998;49.906;10.908;2022-09-01T14:40:35;2.90;;;1.70;;
1993;SDS011;998;49.906;10.908;2022-09-01T14:43:05;2.73;;;1.43;;
1993;SDS011;998;49.906;10.908;2022-09-01T14:45:34;3.67;;;2.00;;
1993;SDS011;998;49.906;10.908;2022-09-01T14:48:02;3.60;;;1.60;;
1993;SDS011;998;49.906;10.908;2022-09-01T14:50:32;2.70;;;1.50;;
1993;SDS011;998;49.906;10.908;2022-09-01T14:53:00;3.50;;;2.00;;
1993;SDS011;998;49.906;10.908;2022-09-01T14:55:29;3.10;;;1.60;;
1993;SDS011;998;49.906;10.908;2022-09-01T14:57:57;4.30;;;2.07;;
1993;SDS011;998;49.906;10.908;2022-09-01T15:00:27;3.87;;;1.70;;
1993;SDS011;998;49.906;10.908;2022-09-01T15:02:55;5.70;;;4.40;;
1993;SDS011;998;49.906;10.908;2022-09-01T15:05:22;4.13;;;2.27;;
1993;SDS011;998;49.906;10.908;2022-09-01T15:07:52;3.10;;;1.70;;
1993;SDS011;998;49.906;10.908;2022-09-01T15:10:20;3.43;;;2.20;;
1993;SDS011;998;49.906;10.908;2022-09-01T15:12:49;4.10;;;1.77;;
1993;SDS011;998;49.906;10.908;2022-09-01T15:15:16;2.87;;;1.60;;
1993;SDS011;998;49.906;10.908;2022-09-01T15:17:43;3.80;;;2.00;;
1993;SDS011;998;49.906;10.908;2022-09-01T15:20:10;4.20;;;2.00;;
1993;SDS011;998;49.906;10.908;2022-09-01T15:22:56;2.87;;;1.70;;
1993;SDS011;998;49.906;10.908;2022-09-01T15:25:29;2.70;;;1.50;;
1993;SDS011;998;49.906;10.908;2022-09-01T15:27:56;4.70;;;1.70;;
1993;SDS011;998;49.906;10.908;2022-09-01T15:30:23;4.03;;;1.60;;
1993;SDS011;998;49.906;10.908;2022-09-01T15:32:52;7.73;;;1.87;;
1993;SDS011;998;49.906;10.908;2022-09-01T15:35:20;4.10;;;2.40;;
1993;SDS011;998;49.906;10.908;2022-09-01T15:37:47;4.60;;;1.97;;
1993;SDS011;998;49.906;10.908;2022-09-01T15:40:17;3.17;;;1.47;;
1993;SDS011;998;49.906;10.908;2022-09-01T15:42:45;4.40;;;1.50;;
1993;SDS011;998;49.906;10.908;2022-09-01T15:45:13;3.40;;;1.87;;
1993;SDS011;998;49.906;10.908;2022-09-01T15:47:41;3.27;;;1.87;;
1993;SDS011;998;49.906;10.908;2022-09-01T15:50:09;3.10;;;1.70;;
1993;SDS011;998;49.906;10.908;2022-09-01T15:52:45;7.80;;;1.90;;
1993;SDS011;998;49.906;10.908;2022-09-01T15:55:19;4.00;;;1.87;;
1993;SDS011;998;49.906;10.908;2022-09-01T15:57:48;3.07;;;1.60;;
1993;SDS011;998;49.906;10.908;2022-09-01T16:00:23;6.50;;;1.70;;
1993;SDS011;998;49.906;10.908;2022-09-01T16:02:51;3.40;;;1.83;;
1993;SDS011;998;49.906;10.908;2022-09-01T16:05:20;3.17;;;1.57;;
1993;SDS011;998;49.906;10.908;2022-09-01T16:07:51;3.00;;;1.60;;
1993;SDS011;998;49.906;10.908;2022-09-01T16:10:21;5.50;;;1.60;;
1993;SDS011;998;49.906;10.908;2022-09-01T16:12:48;2.93;;;1.63;;
1993;SDS011;998;49.906;10.908;2022-09-01T16:15:16;2.63;;;1.30;;
1993;SDS011;998;49.906;10.908;2022-09-01T16:20:52;4.50;;;2.80;;
1993;SDS011;998;49.906;10.908;2022-09-01T16:23:25;9.70;;;6.63;;
1993;SDS011;998;49.906;10.908;2022-09-01T16:25:59;5.07;;;2.43;;
1993;SDS011;998;49.906;10.908;2022-09-01T16:28:27;4.20;;;1.47;;